createdAt,value
2023-01-09T00:01:35.245Z,5.99
2023-01-09T00:04:03.061Z,6.00
2023-01-09T00:06:30.735Z,6.03
2023-01-09T00:08:58.654Z,6.06
2023-01-09T00:11:26.426Z,6.06
2023-01-09T00:13:54.321Z,6.10
2023-01-09T00:16:22.187Z,6.10
2023-01-09T00:18:49.922Z,6.14
2023-01-09T00:21:18.184Z,6.18
2023-01-09T00:23:46.033Z,6.19
2023-01-09T00:26:18.973Z,6.21
2023-01-09T00:28:48.641Z,6.24
2023-01-09T00:31:17.090Z,6.24
2023-01-09T00:34:00.802Z,6.27
2023-01-09T00:36:28.751Z,6.24
2023-01-09T00:38:56.634Z,6.23
2023-01-09T00:41:46.317Z,6.21
2023-01-09T00:44:23.877Z,6.23
2023-01-09T00:46:56.448Z,6.21
2023-01-09T00:49:24.635Z,6.23
2023-01-09T00:51:54.538Z,6.25
2023-01-09T00:54:23.041Z,6.28
2023-01-09T00:56:51.761Z,6.33
2023-01-09T00:59:19.386Z,6.35
2023-01-09T01:01:47.184Z,6.36
2023-01-09T01:04:33.530Z,6.35
2023-01-09T01:07:19.686Z,6.36
2023-01-09T01:09:47.364Z,6.35
2023-01-09T01:12:15.044Z,6.36
2023-01-09T01:14:43.014Z,6.35
2023-01-09T01:17:10.749Z,6.35
2023-01-09T01:19:38.534Z,6.36
2023-01-09T01:22:06.279Z,6.35
2023-01-09T01:24:34.728Z,6.38
2023-01-09T01:27:02.619Z,6.40
2023-01-09T01:29:30.368Z,6.42
2023-01-09T01:31:58.099Z,6.44
2023-01-09T01:34:25.946Z,6.43
2023-01-09T01:36:53.597Z,6.42
2023-01-09T01:39:21.290Z,6.43
2023-01-09T01:41:49.017Z,6.43
2023-01-09T01:44:54.376Z,6.42
2023-01-09T01:47:43.412Z,6.42
2023-01-09T01:50:25.904Z,6.41
2023-01-09T01:53:20.841Z,6.44
2023-01-09T01:55:55.107Z,6.42
2023-01-09T01:58:23.031Z,6.42
2023-01-09T02:00:50.820Z,6.42
2023-01-09T02:03:21.303Z,6.42
2023-01-09T02:05:50.044Z,6.42
2023-01-09T02:08:18.644Z,6.41
2023-01-09T02:10:47.268Z,6.39
2023-01-09T02:13:15.535Z,6.35
2023-01-09T02:16:05.902Z,6.34
2023-01-09T02:18:41.622Z,6.34
2023-01-09T02:21:24.088Z,6.32
2023-01-09T02:24:10.255Z,6.31
2023-01-09T02:26:54.056Z,6.29
2023-01-09T02:30:06.177Z,6.31
2023-01-09T02:32:50.604Z,6.30
2023-01-09T02:35:47.687Z,6.30
2023-01-09T02:38:25.949Z,6.28
2023-01-09T02:41:23.930Z,6.28
2023-01-09T02:44:12.905Z,6.26
2023-01-09T02:46:40.608Z,6.26
2023-01-09T02:49:08.700Z,6.21
2023-01-09T02:52:18.327Z,6.19
2023-01-09T02:55:10.436Z,6.17
2023-01-09T02:57:50.573Z,6.17
2023-01-09T03:00:35.577Z,6.13
2023-01-09T03:03:38.971Z,6.12
2023-01-09T03:06:21.491Z,6.11
2023-01-09T03:09:14.762Z,6.08
2023-01-09T03:11:48.635Z,6.09
2023-01-09T03:14:21.558Z,6.10
2023-01-09T03:16:54.014Z,6.09
2023-01-09T03:19:25.117Z,6.09
2023-01-09T03:21:54.488Z,6.07
2023-01-09T03:24:22.153Z,6.07
2023-01-09T03:26:50.027Z,6.04
2023-01-09T03:29:17.757Z,5.99
2023-01-09T03:31:45.483Z,5.90
2023-01-09T03:34:13.234Z,5.81
2023-01-09T03:36:40.903Z,5.64
2023-01-09T03:39:08.506Z,5.55
2023-01-09T03:41:36.236Z,5.49
2023-01-09T03:44:03.998Z,5.45
2023-01-09T03:46:31.747Z,5.39
2023-01-09T03:48:59.468Z,5.37
2023-01-09T03:51:27.160Z,5.35
2023-01-09T03:53:54.897Z,5.33
2023-01-09T03:56:22.660Z,5.32
2023-01-09T03:58:51.385Z,5.30
2023-01-09T04:01:19.124Z,5.27
2023-01-09T04:03:46.839Z,5.27
2023-01-09T04:06:14.502Z,5.28
2023-01-09T04:08:42.275Z,5.27
2023-01-09T04:11:10.789Z,5.25
2023-01-09T04:13:38.483Z,5.26
2023-01-09T04:16:07.488Z,5.21
2023-01-09T04:18:35.107Z,5.19
2023-01-09T04:21:02.807Z,5.17
2023-01-09T04:23:30.498Z,5.15
2023-01-09T04:25:58.153Z,5.09
2023-01-09T04:28:25.835Z,5.06
2023-01-09T04:30:53.550Z,4.99
2023-01-09T04:33:21.314Z,4.96
2023-01-09T04:35:48.969Z,4.94
2023-01-09T04:38:16.589Z,4.94
2023-01-09T04:40:44.280Z,4.94
2023-01-09T04:43:11.933Z,4.94
2023-01-09T04:45:39.740Z,4.94
2023-01-09T04:48:07.726Z,4.90
2023-01-09T04:50:35.381Z,4.91
2023-01-09T04:53:03.150Z,4.91
2023-01-09T04:55:30.827Z,4.93
2023-01-09T04:57:58.476Z,4.92
2023-01-09T05:00:26.233Z,4.92
2023-01-09T05:02:53.944Z,4.92
2023-01-09T05:05:21.697Z,4.90
2023-01-09T05:07:49.343Z,4.89
2023-01-09T05:10:17.104Z,4.85
2023-01-09T05:12:44.770Z,4.80
2023-01-09T05:15:12.958Z,4.79
2023-01-09T05:17:40.666Z,4.80
2023-01-09T05:20:09.131Z,4.77
2023-01-09T05:22:36.946Z,4.78
2023-01-09T05:25:04.749Z,4.79
2023-01-09T05:27:32.524Z,4.80
2023-01-09T05:30:00.182Z,4.79
2023-01-09T05:32:27.867Z,4.78
2023-01-09T05:34:55.566Z,4.77
2023-01-09T05:37:23.333Z,4.78
2023-01-09T05:39:50.971Z,4.78
2023-01-09T05:42:18.587Z,4.78
2023-01-09T05:44:46.253Z,4.78
2023-01-09T05:47:14.013Z,4.76
2023-01-09T05:49:41.697Z,4.74
2023-01-09T05:52:09.668Z,4.73
2023-01-09T05:54:37.307Z,4.70
2023-01-09T05:57:04.998Z,4.68
2023-01-09T05:59:32.708Z,4.65
2023-01-09T06:02:00.435Z,4.64
2023-01-09T06:04:30.984Z,4.63
2023-01-09T06:06:58.704Z,4.63
2023-01-09T06:09:26.458Z,4.60
2023-01-09T06:11:55.935Z,4.60
2023-01-09T06:14:23.865Z,4.58
2023-01-09T06:16:52.266Z,4.59
2023-01-09T06:19:19.972Z,4.59
2023-01-09T06:21:47.628Z,4.56
2023-01-09T06:24:15.257Z,4.56
2023-01-09T06:26:42.926Z,4.55
2023-01-09T06:29:10.536Z,4.50
2023-01-09T06:31:38.362Z,4.51
2023-01-09T06:34:06.075Z,4.53
2023-01-09T06:36:33.882Z,4.53
2023-01-09T06:39:01.660Z,4.54
2023-01-09T06:41:29.369Z,4.52
2023-01-09T06:43:57.064Z,4.55
2023-01-09T06:46:24.772Z,4.54
2023-01-09T06:48:52.435Z,4.51
2023-01-09T06:51:20.161Z,4.51
2023-01-09T06:53:47.906Z,4.49
2023-01-09T06:56:15.627Z,4.47
2023-01-09T06:58:43.451Z,4.47
2023-01-09T07:01:11.319Z,4.48
2023-01-09T07:03:39.177Z,4.48
2023-01-09T07:06:08.059Z,4.49
2023-01-09T07:08:35.938Z,4.49
2023-01-09T07:11:03.564Z,4.58
2023-01-09T07:13:31.243Z,4.63
2023-01-09T07:15:59.229Z,4.67
2023-01-09T07:18:27.015Z,4.69
2023-01-09T07:20:54.714Z,4.72
2023-01-09T07:23:22.324Z,4.74
2023-01-09T07:25:52.218Z,4.74
2023-01-09T07:28:19.858Z,4.76
2023-01-09T07:30:47.494Z,4.78
2023-01-09T07:33:15.231Z,4.89
2023-01-09T07:35:42.965Z,5.57
2023-01-09T07:38:10.611Z,5.72
2023-01-09T07:40:38.482Z,5.64
2023-01-09T07:43:06.192Z,5.68
2023-01-09T07:45:33.867Z,5.68
2023-01-09T07:48:01.626Z,5.70
2023-01-09T07:50:29.306Z,5.70
2023-01-09T07:52:57.015Z,5.69
2023-01-09T07:55:24.727Z,5.68
2023-01-09T07:57:52.866Z,5.67
2023-01-09T08:00:22.212Z,5.64
2023-01-09T08:02:54.361Z,5.60
2023-01-09T08:05:22.956Z,5.58
2023-01-09T08:07:52.449Z,5.54
2023-01-09T08:10:21.016Z,5.53
2023-01-09T08:12:50.006Z,5.53
2023-01-09T08:15:18.397Z,5.52
2023-01-09T08:17:47.621Z,5.52
2023-01-09T08:20:17.784Z,5.53
2023-01-09T08:22:51.036Z,5.53
2023-01-09T08:25:19.538Z,5.51
2023-01-09T08:27:47.350Z,5.53
2023-01-09T08:30:16.068Z,5.51
2023-01-09T08:32:44.045Z,5.51
2023-01-09T08:35:11.819Z,5.52
2023-01-09T08:37:39.571Z,5.54
2023-01-09T08:40:07.809Z,5.55
2023-01-09T08:42:54.310Z,5.57
2023-01-09T08:45:40.467Z,5.61
2023-01-09T08:48:08.826Z,5.64
2023-01-09T08:50:36.479Z,5.65
2023-01-09T08:53:04.661Z,5.69
2023-01-09T08:55:32.530Z,5.71
2023-01-09T08:58:00.368Z,5.75
2023-01-09T09:00:28.415Z,5.76
2023-01-09T09:02:58.995Z,5.76
2023-01-09T09:05:28.817Z,5.76
2023-01-09T09:07:57.218Z,5.80
2023-01-09T09:10:29.544Z,5.83
2023-01-09T09:12:59.538Z,5.90
2023-01-09T09:15:28.594Z,5.91
2023-01-09T09:17:58.925Z,5.98
2023-01-09T09:20:29.004Z,5.99
2023-01-09T09:22:56.911Z,5.97
2023-01-09T09:25:24.765Z,6.00
2023-01-09T09:27:52.864Z,6.00
2023-01-09T09:30:21.421Z,6.02
2023-01-09T09:32:49.325Z,6.04
2023-01-09T09:35:19.054Z,6.06
2023-01-09T09:37:57.915Z,6.10
2023-01-09T09:40:49.023Z,6.09
2023-01-09T09:43:57.276Z,6.13
2023-01-09T09:46:30.689Z,6.18
2023-01-09T09:49:07.946Z,6.19
2023-01-09T09:51:50.038Z,6.22
2023-01-09T09:54:27.179Z,6.28
2023-01-09T09:56:59.041Z,6.31
2023-01-09T09:59:34.571Z,6.38
2023-01-09T10:02:13.152Z,6.42
2023-01-09T10:04:47.713Z,6.49
2023-01-09T10:07:29.614Z,6.52
2023-01-09T10:10:01.693Z,6.52
2023-01-09T10:12:31.781Z,6.48
2023-01-09T10:15:02.523Z,6.46
2023-01-09T10:17:40.776Z,6.46
2023-01-09T10:20:19.058Z,6.50
2023-01-09T10:23:01.193Z,6.48
2023-01-09T10:25:50.535Z,6.57
2023-01-09T10:28:30.288Z,6.59
2023-01-09T10:31:06.008Z,6.62
2023-01-09T10:33:49.937Z,6.62
2023-01-09T10:36:38.973Z,6.72
2023-01-09T10:39:12.354Z,6.79
2023-01-09T10:41:52.192Z,6.83
2023-01-09T10:44:44.838Z,6.84
2023-01-09T10:47:29.712Z,6.89
2023-01-09T10:49:58.403Z,6.84
2023-01-09T10:52:38.544Z,6.89
2023-01-09T10:55:24.282Z,6.89
2023-01-09T10:57:58.469Z,6.96
2023-01-09T11:00:26.709Z,6.95
2023-01-09T11:02:56.007Z,7.02
2023-01-09T11:05:32.585Z,7.05
2023-01-09T11:08:09.697Z,7.10
2023-01-09T11:10:50.286Z,7.12
2023-01-09T11:13:33.690Z,7.16
2023-01-09T11:16:06.032Z,7.14
2023-01-09T11:18:40.260Z,7.17
2023-01-09T11:21:33.867Z,7.21
2023-01-09T11:24:19.802Z,7.23
2023-01-09T11:26:52.196Z,7.25
2023-01-09T11:29:27.263Z,7.30
2023-01-09T11:31:57.942Z,7.28
2023-01-09T11:34:29.639Z,7.22
2023-01-09T11:37:15.118Z,7.19
2023-01-09T11:39:49.106Z,7.16
2023-01-09T11:42:46.103Z,7.12
2023-01-09T11:45:18.805Z,7.02
2023-01-09T11:47:47.314Z,6.96
2023-01-09T11:50:29.979Z,6.96
2023-01-09T11:53:18.921Z,6.91
2023-01-09T11:55:48.845Z,6.92
2023-01-09T11:58:22.160Z,6.90
2023-01-09T12:00:57.691Z,6.87
2023-01-09T12:04:02.826Z,6.76
2023-01-09T12:06:55.981Z,6.72
2023-01-09T12:09:41.624Z,6.74
2023-01-09T12:12:26.119Z,6.76
2023-01-09T12:15:20.922Z,6.77
2023-01-09T12:18:25.044Z,6.73
2023-01-09T12:21:01.682Z,6.75
2023-01-09T12:23:45.931Z,6.80
2023-01-09T12:26:23.893Z,6.82
2023-01-09T12:28:51.459Z,6.88
2023-01-09T12:31:24.838Z,6.97
2023-01-09T12:33:58.767Z,7.00
2023-01-09T12:36:38.501Z,6.98
2023-01-09T12:39:33.532Z,6.93
2023-01-09T12:42:16.174Z,6.78
2023-01-09T12:44:54.273Z,6.59
2023-01-09T12:47:45.745Z,6.44
2023-01-09T12:50:19.742Z,6.36
2023-01-09T12:53:17.930Z,6.35
2023-01-09T12:55:52.507Z,6.28
2023-01-09T12:58:40.514Z,6.31
2023-01-09T13:01:43.538Z,6.31
2023-01-09T13:04:16.773Z,6.31
2023-01-09T13:06:51.595Z,6.37
2023-01-09T13:09:26.142Z,6.42
2023-01-09T13:12:03.202Z,6.46
2023-01-09T13:14:41.172Z,6.50
2023-01-09T13:17:18.894Z,6.47
2023-01-09T13:19:47.379Z,6.46
2023-01-09T13:22:16.647Z,6.36
2023-01-09T13:25:08.340Z,6.22
2023-01-09T13:27:40.571Z,6.13
2023-01-09T13:40:21.154Z,5.91
2023-01-09T13:42:59.016Z,5.97
2023-01-09T13:45:29.608Z,6.00
2023-01-09T13:48:09.787Z,6.00
2023-01-09T13:50:38.255Z,6.00
2023-01-09T13:53:21.245Z,5.97
2023-01-09T13:55:58.731Z,5.95
2023-01-09T13:58:30.582Z,5.95
2023-01-09T14:01:25.950Z,5.90
2023-01-09T14:04:17.154Z,5.86
2023-01-09T14:07:20.529Z,5.83
2023-01-09T14:09:56.559Z,5.84
2023-01-09T14:12:25.656Z,5.84
2023-01-09T14:14:56.373Z,5.83
2023-01-09T14:17:33.808Z,5.85
2023-01-09T14:20:05.802Z,5.84
2023-01-09T14:22:45.531Z,5.89
2023-01-09T14:25:27.965Z,5.92
2023-01-09T14:27:55.577Z,5.97
2023-01-09T14:30:32.534Z,6.02
2023-01-09T14:33:19.225Z,6.06
2023-01-09T14:36:10.032Z,6.08
2023-01-09T14:39:07.281Z,6.12
2023-01-09T14:41:59.028Z,6.16
2023-01-09T14:44:56.638Z,6.21
2023-01-09T14:47:36.087Z,6.26
2023-01-09T14:50:15.784Z,6.25
2023-01-09T14:52:50.451Z,6.28
2023-01-09T14:55:41.389Z,6.29
2023-01-09T14:58:22.614Z,6.30
2023-01-09T15:01:11.920Z,6.31
2023-01-09T15:03:44.585Z,6.30
2023-01-09T15:06:18.068Z,6.30
2023-01-09T15:08:47.791Z,6.22
2023-01-09T15:11:15.780Z,6.19
2023-01-09T15:13:47.503Z,6.12
2023-01-09T15:16:25.918Z,6.10
2023-01-09T15:18:59.735Z,6.09
2023-01-09T15:21:31.949Z,6.01
2023-01-09T15:24:29.745Z,6.03
2023-01-09T15:27:04.194Z,6.06
2023-01-09T15:29:32.281Z,6.05
2023-01-09T15:32:09.077Z,6.06
2023-01-09T15:34:37.795Z,6.04
2023-01-09T15:37:05.780Z,6.03
2023-01-09T15:39:37.878Z,6.04
2023-01-09T15:42:24.665Z,6.01
2023-01-09T15:44:54.798Z,6.03
2023-01-09T15:47:25.628Z,6.06
2023-01-09T15:49:53.913Z,6.07
2023-01-09T15:52:22.901Z,6.08
2023-01-09T15:54:50.578Z,6.03
2023-01-09T15:57:27.105Z,6.02
2023-01-09T16:00:18.524Z,6.04
2023-01-09T16:03:05.799Z,6.04
2023-01-09T16:05:34.473Z,5.97
2023-01-09T16:08:03.371Z,5.95
2023-01-09T16:10:35.807Z,5.87
2023-01-09T16:13:04.247Z,5.79
2023-01-09T16:15:35.920Z,5.66
2023-01-09T16:18:16.580Z,5.43
2023-01-09T16:20:45.485Z,5.23
2023-01-09T16:23:30.774Z,5.09
2023-01-09T16:26:13.377Z,4.89
2023-01-09T16:28:42.122Z,4.74
2023-01-09T16:31:31.871Z,4.62
2023-01-09T16:34:13.570Z,4.44
2023-01-09T16:36:41.418Z,4.33
2023-01-09T16:39:16.261Z,4.29
2023-01-09T16:42:04.535Z,4.19
2023-01-09T16:44:32.224Z,4.12
2023-01-09T16:47:00.173Z,3.96
2023-01-09T16:49:29.571Z,3.84
2023-01-09T16:51:58.240Z,3.73
2023-01-09T16:54:25.968Z,3.65
2023-01-09T16:56:55.784Z,3.54
2023-01-09T16:59:25.821Z,3.44
2023-01-09T17:01:55.387Z,3.38
2023-01-09T17:04:24.929Z,3.25
2023-01-09T17:06:52.808Z,3.28
2023-01-09T17:09:26.502Z,3.27
2023-01-09T17:11:54.926Z,3.29
2023-01-09T17:14:22.752Z,3.26
2023-01-09T17:16:50.432Z,3.30
2023-01-09T17:19:20.826Z,3.31
2023-01-09T17:21:48.640Z,3.28
2023-01-09T17:24:35.181Z,3.28
2023-01-09T17:27:22.274Z,3.28
2023-01-09T17:29:49.984Z,3.29
2023-01-09T17:32:19.228Z,3.29
2023-01-09T17:34:46.913Z,3.29
2023-01-09T17:37:16.769Z,3.31
2023-01-09T17:39:45.655Z,3.32
2023-01-09T17:42:13.456Z,3.33
2023-01-09T17:44:41.181Z,3.36
2023-01-09T17:47:16.081Z,3.39
2023-01-09T17:49:44.217Z,3.43
2023-01-09T17:52:12.088Z,3.47
2023-01-09T17:54:40.912Z,3.51
2023-01-09T17:57:08.925Z,3.51
2023-01-09T17:59:36.815Z,3.54
2023-01-09T18:02:04.710Z,3.57
2023-01-09T18:04:32.641Z,3.60
2023-01-09T18:07:00.425Z,3.64
2023-01-09T18:09:28.188Z,3.65
2023-01-09T18:11:55.969Z,3.62
2023-01-09T18:14:23.774Z,3.61
2023-01-09T18:16:51.665Z,3.61
2023-01-09T18:19:19.384Z,3.59
2023-01-09T18:21:47.955Z,3.61
2023-01-09T18:24:15.660Z,3.61
2023-01-09T18:26:43.454Z,3.60
2023-01-09T18:29:12.529Z,3.57
2023-01-09T18:31:40.330Z,3.57
2023-01-09T18:34:08.581Z,3.56
2023-01-09T18:36:36.786Z,3.50
2023-01-09T18:39:06.707Z,3.48
2023-01-09T18:41:34.636Z,3.50
2023-01-09T18:44:02.968Z,3.45
2023-01-09T18:46:33.128Z,3.47
2023-01-09T18:49:03.321Z,3.50
2023-01-09T18:51:33.527Z,3.49
2023-01-09T18:54:01.238Z,3.51
2023-01-09T18:56:28.931Z,3.57
2023-01-09T18:58:58.478Z,3.58
2023-01-09T19:01:28.598Z,3.62
2023-01-09T19:03:57.523Z,3.60
2023-01-09T19:06:25.355Z,3.65
2023-01-09T19:08:53.987Z,3.69
2023-01-09T19:11:21.747Z,3.72
2023-01-09T19:13:49.532Z,3.74
2023-01-09T19:16:18.376Z,3.75
2023-01-09T19:18:46.602Z,3.76
2023-01-09T19:21:17.972Z,3.79
2023-01-09T19:23:47.098Z,3.82
2023-01-09T19:26:25.020Z,3.81
2023-01-09T19:28:56.159Z,3.85
2023-01-09T19:31:25.759Z,3.88
2023-01-09T19:33:54.149Z,3.90
2023-01-09T19:36:22.841Z,3.92
2023-01-09T19:38:50.974Z,3.91
2023-01-09T19:41:22.052Z,3.88
2023-01-09T19:43:49.879Z,3.87
2023-01-09T19:46:23.450Z,3.86
2023-01-09T19:48:52.611Z,3.85
2023-01-09T19:51:22.837Z,3.86
2023-01-09T19:53:55.668Z,3.84
2023-01-09T19:56:27.007Z,3.84
2023-01-09T19:58:57.289Z,3.85
2023-01-09T20:01:28.006Z,3.83
2023-01-09T20:03:57.926Z,3.81
2023-01-09T20:06:27.570Z,3.82
2023-01-09T20:08:57.697Z,3.81
2023-01-09T20:11:27.666Z,3.76
2023-01-09T20:13:56.818Z,3.78
2023-01-09T20:16:32.587Z,3.76
2023-01-09T20:19:05.135Z,3.73
2023-01-09T20:21:33.228Z,3.70
2023-01-09T20:24:02.498Z,3.68
2023-01-09T20:26:31.410Z,3.69
2023-01-09T20:28:59.592Z,3.70
2023-01-09T20:31:29.470Z,3.71
2023-01-09T20:33:57.334Z,3.70
2023-01-09T20:36:31.612Z,3.69
2023-01-09T20:39:02.152Z,3.66
2023-01-09T20:41:31.904Z,3.65
2023-01-09T20:44:06.037Z,3.65
2023-01-09T20:46:42.663Z,3.62
2023-01-09T20:49:13.966Z,3.61
2023-01-09T20:51:44.614Z,3.60
2023-01-09T20:54:12.291Z,3.60
2023-01-09T20:56:40.189Z,3.61
2023-01-09T20:59:12.933Z,3.63
2023-01-09T21:01:41.520Z,3.65
2023-01-09T21:04:09.998Z,3.64
2023-01-09T21:06:37.882Z,3.66
2023-01-09T21:09:06.740Z,3.69
2023-01-09T21:11:35.295Z,3.70
2023-01-09T21:14:03.049Z,3.69
2023-01-09T21:16:30.961Z,3.68
2023-01-09T21:18:58.622Z,3.66
2023-01-09T21:21:28.579Z,3.69
2023-01-09T21:23:59.127Z,3.70
2023-01-09T21:26:30.029Z,3.71
2023-01-09T21:28:59.993Z,3.72
2023-01-09T21:31:35.668Z,3.72
2023-01-09T21:34:06.152Z,3.69
2023-01-09T21:36:36.433Z,3.69
2023-01-09T21:39:08.027Z,3.66
2023-01-09T21:41:54.840Z,3.65
2023-01-09T21:44:41.369Z,3.61
2023-01-09T21:47:09.154Z,3.57
2023-01-09T21:49:41.791Z,3.55
2023-01-09T21:52:10.908Z,3.55
2023-01-09T21:54:38.631Z,3.60
2023-01-09T21:57:07.137Z,3.65
2023-01-09T21:59:34.895Z,3.69
2023-01-09T22:02:02.604Z,3.72
2023-01-09T22:04:31.597Z,3.73
2023-01-09T22:06:59.326Z,3.79
2023-01-09T22:09:27.005Z,3.81
2023-01-09T22:11:54.789Z,3.84
2023-01-09T22:14:22.764Z,3.86
2023-01-09T22:16:50.493Z,3.86
2023-01-09T22:19:21.124Z,3.89
2023-01-09T22:21:49.658Z,3.91
2023-01-09T22:24:19.651Z,3.90
2023-01-09T22:26:47.324Z,3.90
2023-01-09T22:29:17.097Z,3.92
2023-01-09T22:31:45.020Z,3.90
2023-01-09T22:34:18.057Z,3.91
2023-01-09T22:36:47.347Z,3.94
2023-01-09T22:39:17.132Z,3.94
2023-01-09T22:41:44.981Z,3.93
2023-01-09T22:44:13.955Z,3.89
2023-01-09T22:46:41.723Z,3.86
2023-01-09T22:49:13.029Z,3.83
2023-01-09T22:51:41.474Z,3.84
2023-01-09T22:54:09.374Z,3.83
2023-01-09T22:56:37.370Z,3.80
2023-01-09T22:59:05.062Z,3.79
2023-01-09T23:01:32.850Z,3.79
2023-01-09T23:04:00.577Z,3.79
2023-01-09T23:06:28.253Z,3.77
2023-01-09T23:08:55.999Z,3.75
2023-01-09T23:11:48.886Z,3.79
2023-01-09T23:14:17.240Z,3.77
2023-01-09T23:16:45.099Z,3.81
2023-01-09T23:19:15.908Z,3.83
2023-01-09T23:21:45.252Z,3.81
2023-01-09T23:24:14.819Z,3.81
2023-01-09T23:26:44.674Z,3.82
2023-01-09T23:29:13.511Z,3.83
2023-01-09T23:31:41.215Z,3.81
2023-01-09T23:34:09.475Z,3.81
2023-01-09T23:36:37.450Z,3.80
2023-01-09T23:39:09.779Z,3.77
2023-01-09T23:41:56.643Z,3.79
2023-01-09T23:44:24.476Z,3.80
2023-01-09T23:46:52.645Z,3.74
2023-01-09T23:49:20.511Z,3.70
2023-01-09T23:51:48.441Z,3.70
2023-01-09T23:54:17.553Z,3.66
2023-01-09T23:56:45.943Z,3.66
2023-01-09T23:59:15.277Z,3.64
